createdAt,value
2023-08-17T00:00:50.732Z,18.29
2023-08-17T00:01:50.632Z,18.25
2023-08-17T00:02:50.533Z,18.23
2023-08-17T00:03:50.640Z,18.25
2023-08-17T00:04:50.508Z,18.32
2023-08-17T00:05:50.517Z,18.29
2023-08-17T00:06:50.651Z,18.23
2023-08-17T00:07:50.504Z,18.31
2023-08-17T00:08:50.459Z,18.21
2023-08-17T00:09:50.478Z,18.23
2023-08-17T00:10:50.422Z,18.26
2023-08-17T00:11:50.433Z,18.13
2023-08-17T00:12:50.501Z,18.26
2023-08-17T00:13:50.430Z,18.23
2023-08-17T00:14:50.587Z,18.23
2023-08-17T00:15:50.460Z,18.16
2023-08-17T00:16:50.451Z,18.25
2023-08-17T00:17:50.457Z,18.10
2023-08-17T00:18:50.443Z,18.20
2023-08-17T00:19:50.442Z,18.11
2023-08-17T00:20:50.459Z,18.19
2023-08-17T00:21:50.404Z,18.19
2023-08-17T00:22:50.337Z,18.26
2023-08-17T00:23:50.391Z,18.10
2023-08-17T00:24:50.470Z,18.21
2023-08-17T00:25:50.308Z,18.21
2023-08-17T00:26:50.295Z,18.21
2023-08-17T00:27:50.288Z,18.21
2023-08-17T00:28:50.291Z,18.20
2023-08-17T00:29:50.405Z,18.19
2023-08-17T00:30:50.340Z,18.14
2023-08-17T00:31:50.281Z,18.26
2023-08-17T00:32:50.456Z,18.34
2023-08-17T00:33:50.280Z,18.28
2023-08-17T00:34:50.337Z,18.34
2023-08-17T00:35:50.386Z,18.19
2023-08-17T00:36:50.289Z,18.21
2023-08-17T00:37:50.238Z,18.19
2023-08-17T00:38:50.234Z,18.25
2023-08-17T00:39:50.316Z,18.19
2023-08-17T00:40:50.258Z,18.31
2023-08-17T00:41:50.245Z,18.25
2023-08-17T00:42:50.660Z,18.34
2023-08-17T00:43:50.261Z,18.29
2023-08-17T00:44:50.207Z,18.21
2023-08-17T00:45:50.179Z,18.20
2023-08-17T00:46:50.170Z,18.35
2023-08-17T00:47:50.179Z,18.29
2023-08-17T00:48:50.210Z,18.32
2023-08-17T00:49:50.185Z,18.34
2023-08-17T00:50:50.203Z,18.20
2023-08-17T00:51:50.212Z,18.32
2023-08-17T00:52:50.137Z,18.28
2023-08-17T00:53:50.156Z,18.17
2023-08-17T00:54:50.150Z,18.29
2023-08-17T00:55:50.130Z,18.28
2023-08-17T00:56:50.069Z,18.23
2023-08-17T00:57:50.094Z,18.23
2023-08-17T00:58:50.137Z,18.17
2023-08-17T01:00:02.970Z,18.16
2023-08-17T01:00:51.152Z,18.14
2023-08-17T01:01:50.101Z,18.20
2023-08-17T01:02:50.038Z,18.16
2023-08-17T01:03:50.045Z,18.11
2023-08-17T01:04:50.081Z,18.23
2023-08-17T01:05:50.138Z,18.14
2023-08-17T01:06:50.117Z,18.29
2023-08-17T01:07:50.024Z,18.34
2023-08-17T01:08:50.014Z,18.31
2023-08-17T01:09:50.056Z,18.25
2023-08-17T01:10:50.011Z,18.14
2023-08-17T01:11:49.999Z,18.28
2023-08-17T01:12:50.033Z,18.20
2023-08-17T01:13:50.038Z,18.26
2023-08-17T01:14:49.965Z,18.34
2023-08-17T01:15:49.990Z,18.28
2023-08-17T01:16:49.950Z,18.38
2023-08-17T01:17:50.023Z,18.32
2023-08-17T01:18:50.060Z,18.39
2023-08-17T01:19:49.924Z,18.42
2023-08-17T01:20:49.925Z,18.35
2023-08-17T01:21:49.962Z,18.36
2023-08-17T01:22:49.950Z,18.35
2023-08-17T01:23:49.904Z,18.41
2023-08-17T01:24:50.164Z,18.42
2023-08-17T01:25:50.036Z,18.39
2023-08-17T01:26:49.931Z,18.49
2023-08-17T01:27:49.916Z,18.47
2023-08-17T01:28:49.914Z,18.36
2023-08-17T01:29:49.894Z,18.42
2023-08-17T01:30:49.963Z,18.49
2023-08-17T01:31:49.866Z,18.59
2023-08-17T01:32:49.917Z,18.49
2023-08-17T01:33:49.832Z,18.59
2023-08-17T01:34:49.833Z,18.56
2023-08-17T01:35:49.829Z,18.36
2023-08-17T01:36:49.905Z,18.41
2023-08-17T01:37:49.864Z,18.42
2023-08-17T01:38:49.866Z,18.42
2023-08-17T01:39:49.882Z,18.38
2023-08-17T01:40:49.841Z,18.47
2023-08-17T01:41:49.762Z,18.53
2023-08-17T01:42:49.893Z,18.54
2023-08-17T01:43:49.791Z,18.50
2023-08-17T01:44:49.751Z,18.60
2023-08-17T01:45:49.789Z,18.62
2023-08-17T01:46:49.802Z,18.62
2023-08-17T01:47:49.772Z,18.66
2023-08-17T01:48:49.837Z,18.56
2023-08-17T01:49:49.699Z,18.59
2023-08-17T01:50:49.753Z,18.56
2023-08-17T01:51:49.706Z,18.44
2023-08-17T01:52:49.679Z,18.51
2023-08-17T01:53:49.739Z,18.59
2023-08-17T01:54:49.725Z,18.68
2023-08-17T01:55:50.177Z,18.68
2023-08-17T01:56:49.702Z,18.76
2023-08-17T01:57:49.642Z,18.59
2023-08-17T01:58:49.633Z,18.54
2023-08-17T01:59:49.645Z,18.56
2023-08-17T02:00:49.693Z,18.41
2023-08-17T02:01:49.615Z,18.49
2023-08-17T02:02:49.689Z,18.60
2023-08-17T02:03:49.601Z,18.68
2023-08-17T02:04:49.626Z,18.71
2023-08-17T02:05:49.601Z,18.54
2023-08-17T02:06:49.654Z,18.62
2023-08-17T02:07:49.630Z,18.74
2023-08-17T02:08:49.621Z,18.68
2023-08-17T02:09:49.561Z,18.71
2023-08-17T02:10:49.608Z,18.72
2023-08-17T02:11:49.602Z,18.65
2023-08-17T02:12:49.642Z,18.76
2023-08-17T02:13:49.531Z,18.76
2023-08-17T02:14:49.569Z,18.71
2023-08-17T02:15:49.523Z,18.82
2023-08-17T02:16:49.513Z,18.78
2023-08-17T02:17:49.541Z,18.72
2023-08-17T02:18:49.545Z,18.83
2023-08-17T02:19:49.542Z,18.75
2023-08-17T02:20:49.477Z,18.82
2023-08-17T02:21:49.457Z,18.72
2023-08-17T02:22:49.471Z,18.66
2023-08-17T02:23:49.449Z,18.68
2023-08-17T02:24:49.508Z,18.71
2023-08-17T02:25:49.440Z,18.69
2023-08-17T02:26:49.434Z,18.60
2023-08-17T02:27:49.427Z,18.64
2023-08-17T02:28:49.442Z,18.66
2023-08-17T02:29:49.412Z,18.53
2023-08-17T02:30:49.517Z,18.59
2023-08-17T02:31:49.372Z,18.62
2023-08-17T02:32:49.401Z,18.64
2023-08-17T02:33:49.372Z,18.62
2023-08-17T02:34:49.374Z,18.59
2023-08-17T02:35:49.381Z,18.54
2023-08-17T02:36:49.409Z,18.69
2023-08-17T02:37:49.354Z,18.72
2023-08-17T02:38:49.386Z,18.69
2023-08-17T02:39:49.393Z,18.69
2023-08-17T02:40:49.381Z,18.56
2023-08-17T02:41:49.320Z,18.50
2023-08-17T02:42:49.370Z,18.53
2023-08-17T02:43:49.355Z,18.49
2023-08-17T02:44:49.283Z,18.53
2023-08-17T02:45:49.268Z,18.65
2023-08-17T02:46:49.276Z,18.68
2023-08-17T02:47:49.309Z,18.71
2023-08-17T02:48:49.343Z,18.68
2023-08-17T02:49:49.273Z,18.78
2023-08-17T02:50:49.313Z,18.72
2023-08-17T02:51:49.243Z,18.76
2023-08-17T02:52:49.278Z,18.71
2023-08-17T02:53:49.284Z,18.72
2023-08-17T02:54:49.302Z,18.71
2023-08-17T02:55:49.222Z,18.65
2023-08-17T02:56:49.233Z,18.72
2023-08-17T02:57:49.192Z,18.75
2023-08-17T02:58:49.199Z,18.82
2023-08-17T02:59:49.186Z,18.74
2023-08-17T03:00:49.295Z,18.87
2023-08-17T03:01:49.242Z,18.83
2023-08-17T03:02:49.245Z,18.91
2023-08-17T03:03:49.158Z,18.90
2023-08-17T03:04:49.149Z,18.79
2023-08-17T03:05:49.147Z,18.91
2023-08-17T03:06:49.191Z,18.93
2023-08-17T03:07:49.148Z,18.84
2023-08-17T03:08:49.100Z,18.84
2023-08-17T03:09:49.109Z,18.79
2023-08-17T03:10:49.104Z,18.74
2023-08-17T03:11:49.076Z,18.78
2023-08-17T03:12:49.193Z,18.72
2023-08-17T03:13:49.122Z,18.57
2023-08-17T03:14:49.126Z,18.66
2023-08-17T03:15:49.154Z,18.75
2023-08-17T03:16:49.086Z,18.76
2023-08-17T03:17:49.129Z,18.75
2023-08-17T03:18:49.134Z,18.74
2023-08-17T03:19:49.058Z,18.74
2023-08-17T03:20:49.080Z,18.74
2023-08-17T03:21:49.076Z,18.86
2023-08-17T03:22:49.017Z,18.89
2023-08-17T03:23:49.016Z,18.79
2023-08-17T03:24:49.122Z,18.74
2023-08-17T03:25:49.005Z,18.90
2023-08-17T03:26:48.973Z,18.87
2023-08-17T03:27:49.010Z,18.82
2023-08-17T03:28:48.959Z,18.91
2023-08-17T03:29:49.034Z,18.86
2023-08-17T03:30:49.139Z,18.91
2023-08-17T03:31:48.999Z,18.76
2023-08-17T03:32:48.975Z,18.82
2023-08-17T03:33:48.972Z,18.76
2023-08-17T03:34:49.005Z,18.74
2023-08-17T03:35:48.993Z,18.76
2023-08-17T03:36:49.022Z,18.87
2023-08-17T03:37:48.923Z,18.75
2023-08-17T03:38:48.941Z,18.74
2023-08-17T03:39:48.947Z,18.74
2023-08-17T03:40:48.934Z,18.76
2023-08-17T03:41:48.912Z,18.69
2023-08-17T03:42:48.945Z,18.79
2023-08-17T03:43:48.948Z,18.79
2023-08-17T03:44:48.850Z,18.75
2023-08-17T03:45:48.949Z,18.69
2023-08-17T03:46:48.854Z,18.72
2023-08-17T03:47:48.887Z,18.76
2023-08-17T03:48:48.911Z,18.68
2023-08-17T03:49:48.922Z,18.60
2023-08-17T03:50:48.853Z,18.72
2023-08-17T03:51:48.865Z,18.76
2023-08-17T03:52:48.829Z,18.78
2023-08-17T03:53:48.775Z,18.71
2023-08-17T03:54:48.870Z,18.66
2023-08-17T03:55:48.866Z,18.69
2023-08-17T03:56:48.754Z,18.65
2023-08-17T03:57:48.760Z,18.57
2023-08-17T03:58:48.777Z,18.59
2023-08-17T03:59:48.808Z,18.60
2023-08-17T04:00:48.831Z,18.60
2023-08-17T04:01:48.760Z,18.62
2023-08-17T04:02:48.778Z,18.68
2023-08-17T04:03:48.782Z,18.64
2023-08-17T04:04:48.785Z,18.64
2023-08-17T04:05:48.788Z,18.54
2023-08-17T04:06:48.757Z,18.59
2023-08-17T04:07:48.706Z,18.65
2023-08-17T04:08:48.688Z,18.68
2023-08-17T04:09:48.713Z,18.65
2023-08-17T04:10:48.681Z,18.62
2023-08-17T04:11:48.662Z,18.69
2023-08-17T04:12:48.719Z,18.66
2023-08-17T04:13:48.723Z,18.78
2023-08-17T04:14:48.711Z,18.66
2023-08-17T04:15:48.682Z,18.65
2023-08-17T04:16:48.697Z,18.69
2023-08-17T04:17:48.681Z,18.66
2023-08-17T04:18:48.747Z,18.72
2023-08-17T04:19:48.671Z,18.69
2023-08-17T04:20:48.648Z,18.64
2023-08-17T04:21:48.580Z,18.72
2023-08-17T04:22:48.585Z,18.68
2023-08-17T04:23:48.606Z,18.79
2023-08-17T04:24:48.648Z,18.82
2023-08-17T04:25:48.607Z,18.74
2023-08-17T04:26:48.558Z,18.74
2023-08-17T04:27:48.547Z,18.82
2023-08-17T04:28:48.564Z,18.74
2023-08-17T04:29:48.543Z,18.86
2023-08-17T04:30:48.583Z,18.83
2023-08-17T04:31:48.642Z,18.86
2023-08-17T04:32:48.522Z,18.86
2023-08-17T04:33:48.528Z,18.84
2023-08-17T04:34:48.575Z,18.89
2023-08-17T04:35:48.492Z,18.82
2023-08-17T04:36:48.541Z,18.76
2023-08-17T04:37:48.477Z,18.87
2023-08-17T04:38:48.497Z,18.84
2023-08-17T04:39:48.512Z,18.78
2023-08-17T04:40:48.454Z,18.72
2023-08-17T04:41:48.532Z,18.78
2023-08-17T04:42:48.527Z,18.75
2023-08-17T04:43:48.415Z,18.91
2023-08-17T04:44:48.529Z,18.90
2023-08-17T04:45:48.519Z,18.86
2023-08-17T04:46:48.464Z,18.84
2023-08-17T04:47:48.516Z,18.83
2023-08-17T04:48:48.524Z,18.82
2023-08-17T04:49:48.435Z,18.82
2023-08-17T04:50:48.435Z,18.87
2023-08-17T04:51:48.397Z,18.91
2023-08-17T04:52:48.442Z,18.89
2023-08-17T04:53:48.455Z,18.99
2023-08-17T04:54:48.422Z,18.96
2023-08-17T04:55:48.368Z,18.90
2023-08-17T04:56:48.398Z,19.01
2023-08-17T04:57:48.412Z,18.96
2023-08-17T04:58:48.372Z,18.96
2023-08-17T04:59:48.311Z,19.02
2023-08-17T05:00:48.418Z,19.01
2023-08-17T05:01:48.387Z,19.13
2023-08-17T05:02:48.371Z,19.02
2023-08-17T05:03:48.351Z,19.07
2023-08-17T05:04:48.337Z,19.13
2023-08-17T05:05:48.273Z,19.15
2023-08-17T05:06:48.331Z,19.15
2023-08-17T05:07:48.316Z,19.20
2023-08-17T05:08:48.249Z,19.15
2023-08-17T05:09:48.256Z,19.10
2023-08-17T05:10:48.274Z,19.23
2023-08-17T05:11:48.250Z,19.27
2023-08-17T05:12:48.246Z,19.16
2023-08-17T05:13:48.261Z,19.17
2023-08-17T05:14:48.239Z,19.15
2023-08-17T05:15:48.256Z,19.09
2023-08-17T05:16:48.168Z,19.12
2023-08-17T05:17:48.251Z,19.24
2023-08-17T05:18:48.282Z,19.28
2023-08-17T05:19:48.138Z,19.20
2023-08-17T05:20:48.227Z,19.13
2023-08-17T05:21:48.111Z,19.09
2023-08-17T05:22:48.151Z,19.17
2023-08-17T05:23:48.179Z,19.09
2023-08-17T05:24:48.160Z,18.99
2023-08-17T05:25:48.147Z,19.12
2023-08-17T05:26:48.175Z,19.07
2023-08-17T05:27:48.179Z,19.07
2023-08-17T05:28:48.168Z,18.99
2023-08-17T05:29:48.146Z,19.02
2023-08-17T05:30:48.331Z,19.12
2023-08-17T05:31:48.140Z,19.15
2023-08-17T05:32:48.110Z,19.21
2023-08-17T05:33:48.047Z,19.27
2023-08-17T05:34:48.059Z,19.21
2023-08-17T05:35:48.090Z,19.09
2023-08-17T05:36:48.195Z,19.06
2023-08-17T05:37:48.064Z,19.21
2023-08-17T05:38:48.009Z,19.17
2023-08-17T05:39:48.019Z,19.27
2023-08-17T05:40:48.026Z,19.28
2023-08-17T05:41:48.047Z,19.28
2023-08-17T05:42:48.081Z,19.32
2023-08-17T05:43:47.978Z,19.27
2023-08-17T05:44:47.986Z,19.21
2023-08-17T05:45:48.032Z,19.06
2023-08-17T05:46:48.076Z,19.10
2023-08-17T05:47:48.031Z,19.12
2023-08-17T05:48:48.086Z,19.10
2023-08-17T05:49:48.013Z,19.20
2023-08-17T05:50:47.960Z,19.25
2023-08-17T05:51:47.999Z,19.28
2023-08-17T05:52:48.006Z,19.30
2023-08-17T05:53:47.908Z,19.31
2023-08-17T05:54:48.053Z,19.30
2023-08-17T05:55:47.969Z,19.32
2023-08-17T05:56:47.978Z,19.38
2023-08-17T05:57:47.908Z,19.34
2023-08-17T05:58:47.977Z,19.34
2023-08-17T05:59:47.949Z,19.39
2023-08-17T06:00:48.146Z,19.43
2023-08-17T06:01:47.906Z,19.35
2023-08-17T06:02:47.934Z,19.40
2023-08-17T06:03:47.899Z,19.35
2023-08-17T06:04:47.847Z,19.55
2023-08-17T06:05:47.852Z,19.62
2023-08-17T06:06:47.919Z,19.60
2023-08-17T06:07:47.888Z,19.53
2023-08-17T06:08:47.870Z,19.49
2023-08-17T06:09:47.891Z,19.39
2023-08-17T06:10:47.853Z,19.43
2023-08-17T06:11:47.861Z,19.49
2023-08-17T06:12:47.857Z,19.45
2023-08-17T06:13:47.843Z,19.45
2023-08-17T06:14:47.827Z,19.42
2023-08-17T06:15:47.759Z,19.57
2023-08-17T06:16:47.763Z,19.62
2023-08-17T06:17:47.798Z,19.68
2023-08-17T06:18:47.873Z,19.76
2023-08-17T06:19:47.745Z,19.72
2023-08-17T06:21:48.629Z,19.83
2023-08-17T06:22:47.772Z,19.94
2023-08-17T06:23:47.733Z,20.00
2023-08-17T06:24:47.837Z,19.92
2023-08-17T06:25:47.726Z,19.97
2023-08-17T06:26:47.751Z,19.83
2023-08-17T06:27:47.706Z,19.86
2023-08-17T06:28:47.762Z,19.92
2023-08-17T06:29:47.732Z,19.92
2023-08-17T06:30:47.866Z,19.92
2023-08-17T06:31:47.691Z,19.78
2023-08-17T06:32:47.754Z,19.85
2023-08-17T06:33:47.708Z,19.97
2023-08-17T06:34:47.708Z,19.86
2023-08-17T06:35:47.672Z,19.92
2023-08-17T06:36:47.700Z,19.94
2023-08-17T06:37:47.623Z,19.86
2023-08-17T06:38:47.640Z,19.92
2023-08-17T06:39:47.657Z,19.90
2023-08-17T06:40:47.611Z,19.92
2023-08-17T06:41:47.648Z,19.95
2023-08-17T06:42:47.692Z,19.92
2023-08-17T06:43:47.608Z,19.97
2023-08-17T06:44:47.663Z,20.08
2023-08-17T06:45:47.579Z,20.02
2023-08-17T06:46:47.579Z,20.10
2023-08-17T06:47:47.661Z,20.16
2023-08-17T06:48:47.665Z,20.08
2023-08-17T06:49:47.566Z,19.98
2023-08-17T06:50:47.566Z,20.02
2023-08-17T06:51:47.526Z,20.17
2023-08-17T06:52:47.521Z,20.35
2023-08-17T06:53:47.567Z,20.33
2023-08-17T06:54:47.585Z,20.46
2023-08-17T06:55:47.475Z,20.53
2023-08-17T06:56:47.514Z,20.54
2023-08-17T06:57:47.455Z,20.42
2023-08-17T06:58:47.481Z,20.42
2023-08-17T06:59:47.489Z,20.38
2023-08-17T07:00:47.592Z,20.42
2023-08-17T07:01:47.469Z,20.54
2023-08-17T07:02:53.705Z,20.66
2023-08-17T07:03:48.463Z,20.72
2023-08-17T07:04:47.625Z,20.75
2023-08-17T07:05:47.480Z,20.81
2023-08-17T07:06:47.511Z,20.79
2023-08-17T07:07:47.397Z,20.82
2023-08-17T07:08:47.471Z,20.78
2023-08-17T07:09:47.413Z,20.31
2023-08-17T07:10:47.440Z,20.38
2023-08-17T07:11:47.435Z,20.46
2023-08-17T07:12:47.508Z,20.46
2023-08-17T07:13:47.427Z,20.54
2023-08-17T07:14:47.418Z,20.64
2023-08-17T07:15:47.443Z,20.69
2023-08-17T07:16:47.379Z,20.61
2023-08-17T07:17:47.369Z,20.53
2023-08-17T07:18:47.386Z,20.44
2023-08-17T07:20:48.315Z,20.44
2023-08-17T07:21:47.348Z,20.53
2023-08-17T07:22:47.296Z,20.68
2023-08-17T07:23:47.336Z,20.85
2023-08-17T07:24:47.430Z,20.97
2023-08-17T07:25:47.309Z,21.01
2023-08-17T07:26:47.350Z,21.01
2023-08-17T07:27:47.330Z,21.09
2023-08-17T07:28:47.314Z,21.15
2023-08-17T07:29:47.284Z,21.03
2023-08-17T07:30:47.330Z,20.96
2023-08-17T07:31:47.308Z,20.90
2023-08-17T07:32:47.248Z,21.09
2023-08-17T07:33:47.290Z,21.12
2023-08-17T07:34:47.247Z,21.11
2023-08-17T07:35:47.269Z,20.93
2023-08-17T07:36:47.264Z,20.94
2023-08-17T07:37:55.865Z,20.93
2023-08-17T07:38:48.264Z,21.06
2023-08-17T07:39:47.259Z,20.97
2023-08-17T07:40:47.250Z,21.08
2023-08-17T07:41:47.232Z,21.11
2023-08-17T07:42:47.273Z,21.08
2023-08-17T07:43:47.170Z,21.28
2023-08-17T07:44:47.178Z,21.24
2023-08-17T07:45:47.182Z,21.21
2023-08-17T07:46:47.133Z,21.24
2023-08-17T07:47:47.199Z,21.31
2023-08-17T07:48:47.241Z,21.36
2023-08-17T07:49:47.186Z,21.27
2023-08-17T07:50:47.194Z,21.33
2023-08-17T07:51:47.129Z,21.28
2023-08-17T07:52:47.165Z,21.33
2023-08-17T07:53:47.174Z,21.43
2023-08-17T07:54:47.149Z,21.38
2023-08-17T07:55:47.278Z,21.64
2023-08-17T07:56:47.052Z,21.64
2023-08-17T07:57:47.160Z,21.63
2023-08-17T07:58:47.053Z,21.61
2023-08-17T07:59:47.066Z,21.56
2023-08-17T08:00:47.180Z,21.56
2023-08-17T08:01:47.126Z,21.58
2023-08-17T08:02:47.136Z,21.56
2023-08-17T08:03:47.025Z,21.59
2023-08-17T08:04:47.038Z,21.49
2023-08-17T08:05:47.137Z,21.61
2023-08-17T08:06:47.151Z,21.56
2023-08-17T08:07:47.032Z,21.34
2023-08-17T08:08:47.051Z,21.36
2023-08-17T08:09:46.932Z,21.36
2023-08-17T08:10:47.018Z,21.43
2023-08-17T08:11:46.997Z,21.18
2023-08-17T08:12:46.986Z,21.13
2023-08-17T08:13:46.943Z,21.16
2023-08-17T08:14:47.017Z,21.16
2023-08-17T08:15:47.017Z,21.36
2023-08-17T08:16:46.993Z,21.36
2023-08-17T08:17:47.000Z,21.11
2023-08-17T08:18:46.987Z,21.01
2023-08-17T08:19:46.914Z,21.06
2023-08-17T08:20:46.953Z,21.09
2023-08-17T08:21:46.935Z,20.98
2023-08-17T08:22:46.942Z,21.08
2023-08-17T08:23:46.929Z,21.13
2023-08-17T08:24:46.929Z,21.26
2023-08-17T08:25:46.897Z,21.34
2023-08-17T08:26:46.902Z,21.22
2023-08-17T08:27:46.911Z,21.28
2023-08-17T08:28:46.905Z,21.37
2023-08-17T08:29:46.836Z,21.15
2023-08-17T08:30:46.947Z,20.90
2023-08-17T08:31:46.873Z,20.87
2023-08-17T08:32:46.872Z,20.88
2023-08-17T08:33:46.807Z,20.81
2023-08-17T08:34:46.809Z,20.81
2023-08-17T08:35:46.887Z,20.56
2023-08-17T08:36:46.833Z,20.71
2023-08-17T08:37:46.825Z,20.82
2023-08-17T08:38:46.821Z,21.11
2023-08-17T08:39:46.792Z,21.08
2023-08-17T08:40:46.751Z,21.13
2023-08-17T08:41:46.788Z,21.22
2023-08-17T08:42:46.791Z,21.36
2023-08-17T08:43:47.940Z,21.46
2023-08-17T08:44:46.752Z,21.48
2023-08-17T08:45:46.809Z,21.52
2023-08-17T08:46:46.747Z,21.64
2023-08-17T08:47:46.813Z,21.75
2023-08-17T08:48:46.767Z,21.94
2023-08-17T08:49:46.709Z,22.02
2023-08-17T08:50:46.738Z,22.17
2023-08-17T08:51:46.696Z,22.26
2023-08-17T08:52:46.655Z,22.31
2023-08-17T08:53:46.727Z,21.98
2023-08-17T08:54:46.765Z,21.71
2023-08-17T08:55:46.712Z,21.33
2023-08-17T08:56:48.205Z,21.12
2023-08-17T08:57:51.673Z,21.33
2023-08-17T08:58:47.694Z,21.58
2023-08-17T08:59:46.627Z,21.67
2023-08-17T09:00:46.766Z,21.40
2023-08-17T09:01:47.560Z,21.36
2023-08-17T09:02:46.615Z,21.58
2023-08-17T09:03:46.639Z,21.61
2023-08-17T09:04:46.662Z,21.90
2023-08-17T09:05:46.577Z,22.04
2023-08-17T09:06:46.642Z,22.12
2023-08-17T09:07:46.649Z,22.30
2023-08-17T09:08:46.604Z,22.56
2023-08-17T09:09:46.611Z,22.76
2023-08-17T09:10:46.597Z,22.64
2023-08-17T09:11:46.599Z,22.59
2023-08-17T09:13:46.580Z,22.88
2023-08-17T09:14:46.508Z,22.88
2023-08-17T09:15:46.561Z,23.01
2023-08-17T09:16:46.602Z,22.97
2023-08-17T09:17:46.571Z,23.09
2023-08-17T09:18:46.567Z,23.04
2023-08-17T09:19:46.539Z,22.93
2023-08-17T09:20:48.667Z,22.93
2023-08-17T09:21:50.902Z,23.00
2023-08-17T09:22:46.509Z,22.97
2023-08-17T09:23:46.491Z,23.11
2023-08-17T09:24:46.565Z,22.99
2023-08-17T09:25:46.460Z,22.78
2023-08-17T09:26:46.539Z,22.85
2023-08-17T09:27:46.406Z,22.67
2023-08-17T09:28:46.447Z,22.20
2023-08-17T09:29:46.454Z,22.04
2023-08-17T09:30:46.515Z,21.85
2023-08-17T09:31:46.419Z,22.05
2023-08-17T09:32:46.458Z,22.29
2023-08-17T09:33:46.429Z,22.01
2023-08-17T09:34:49.070Z,21.99
2023-08-17T09:35:46.421Z,22.04
2023-08-17T09:36:46.411Z,22.24
2023-08-17T09:37:46.382Z,22.42
2023-08-17T09:38:46.397Z,22.44
2023-08-17T09:39:46.385Z,22.41
2023-08-17T09:40:46.317Z,22.36
2023-08-17T09:41:46.289Z,22.23
2023-08-17T09:42:46.418Z,22.44
2023-08-17T09:43:46.419Z,22.69
2023-08-17T09:44:46.335Z,22.88
2023-08-17T09:45:46.334Z,23.07
2023-08-17T09:46:46.378Z,23.03
2023-08-17T09:47:46.338Z,23.00
2023-08-17T09:48:46.388Z,23.09
2023-08-17T09:49:46.316Z,22.96
2023-08-17T09:50:46.370Z,22.84
2023-08-17T09:51:46.318Z,22.85
2023-08-17T09:52:51.347Z,22.93
2023-08-17T09:53:47.314Z,23.03
2023-08-17T09:54:46.279Z,23.09
2023-08-17T09:55:46.284Z,23.22
2023-08-17T09:56:46.265Z,23.37
2023-08-17T09:57:46.287Z,22.99
2023-08-17T09:58:46.200Z,22.69
2023-08-17T09:59:46.300Z,22.49
2023-08-17T10:00:50.332Z,22.59
2023-08-17T10:01:47.229Z,22.57
2023-08-17T10:02:46.230Z,22.63
2023-08-17T10:03:46.276Z,22.52
2023-08-17T10:04:46.225Z,22.79
2023-08-17T10:05:46.274Z,22.96
2023-08-17T10:06:46.195Z,23.31
2023-08-17T10:07:46.160Z,23.47
2023-08-17T10:08:46.163Z,23.77
2023-08-17T10:09:50.138Z,24.00
2023-08-17T10:10:46.169Z,24.15
2023-08-17T10:11:46.336Z,24.00
2023-08-17T10:12:46.073Z,24.14
2023-08-17T10:13:46.113Z,24.06
2023-08-17T10:14:46.126Z,24.00
2023-08-17T10:15:46.144Z,24.15
2023-08-17T10:16:46.169Z,24.34
2023-08-17T10:17:46.227Z,24.46
2023-08-17T10:18:46.123Z,24.63
2023-08-17T10:19:46.164Z,24.51
2023-08-17T10:20:46.069Z,24.66
2023-08-17T10:21:46.086Z,24.89
2023-08-17T10:22:46.034Z,25.01
2023-08-17T10:23:46.138Z,24.84
2023-08-17T10:24:46.872Z,24.53
2023-08-17T10:25:51.353Z,24.59
2023-08-17T10:26:47.079Z,24.84
2023-08-17T10:27:45.992Z,24.46
2023-08-17T10:28:45.971Z,23.82
2023-08-17T10:29:46.068Z,23.41
2023-08-17T10:30:45.997Z,23.52
2023-08-17T10:31:46.051Z,23.21
2023-08-17T10:32:46.028Z,23.32
2023-08-17T10:33:46.018Z,23.09
2023-08-17T10:34:45.980Z,23.32
2023-08-17T10:35:46.014Z,23.59
2023-08-17T10:36:45.953Z,23.71
2023-08-17T10:37:45.973Z,23.78
2023-08-17T10:38:45.985Z,23.74
2023-08-17T10:39:45.969Z,23.81
2023-08-17T10:40:45.975Z,23.59
2023-08-17T10:41:46.022Z,23.81
2023-08-17T10:42:45.917Z,24.11
2023-08-17T10:43:45.936Z,24.39
2023-08-17T10:44:45.888Z,24.29
2023-08-17T10:45:45.975Z,24.48
2023-08-17T10:46:45.850Z,24.90
2023-08-17T10:47:45.982Z,25.09
2023-08-17T10:48:45.891Z,25.05
2023-08-17T10:49:45.879Z,25.42
2023-08-17T10:50:45.899Z,25.29
2023-08-17T10:51:45.895Z,25.38
2023-08-17T10:52:49.086Z,25.61
2023-08-17T10:53:45.956Z,25.64
2023-08-17T10:54:45.930Z,26.03
2023-08-17T10:55:45.864Z,25.39
2023-08-17T10:56:47.114Z,24.83
2023-08-17T10:57:45.856Z,24.94
2023-08-17T10:58:45.831Z,25.34
2023-08-17T10:59:45.901Z,25.35
2023-08-17T11:00:46.342Z,25.39
2023-08-17T11:01:45.843Z,25.60
2023-08-17T11:02:45.796Z,25.39
2023-08-17T11:03:45.828Z,25.19
2023-08-17T11:04:45.817Z,25.35
2023-08-17T11:05:45.805Z,25.36
2023-08-17T11:06:45.778Z,25.41
2023-08-17T11:07:45.889Z,25.57
2023-08-17T11:08:45.837Z,25.57
2023-08-17T11:09:45.781Z,25.29
2023-08-17T11:10:48.310Z,24.98
2023-08-17T11:11:50.547Z,24.94
2023-08-17T11:12:45.742Z,24.70
2023-08-17T11:13:45.725Z,24.64
2023-08-17T11:14:45.714Z,24.77
2023-08-17T11:15:45.703Z,24.99
2023-08-17T11:16:45.783Z,25.16
2023-08-17T11:17:45.737Z,25.20
2023-08-17T11:18:45.683Z,24.79
2023-08-17T11:19:45.688Z,24.87
2023-08-17T11:20:45.656Z,25.63
2023-08-17T11:21:45.617Z,26.32
2023-08-17T11:22:45.691Z,26.19
2023-08-17T11:23:45.707Z,26.13
2023-08-17T11:24:45.617Z,26.38
2023-08-17T11:25:45.620Z,26.73
2023-08-17T11:26:45.569Z,27.52
2023-08-17T11:27:45.574Z,27.31
2023-08-17T11:28:45.630Z,27.39
2023-08-17T11:29:45.695Z,27.53
2023-08-17T11:30:47.732Z,27.86
2023-08-17T11:31:51.106Z,27.49
2023-08-17T11:32:46.623Z,27.77
2023-08-17T11:33:45.579Z,28.11
2023-08-17T11:34:45.548Z,28.67
2023-08-17T11:35:45.684Z,29.08
2023-08-17T11:36:45.516Z,28.76
2023-08-17T11:37:45.532Z,28.51
2023-08-17T11:38:45.632Z,28.92
2023-08-17T11:39:45.462Z,29.08
2023-08-17T11:40:45.465Z,29.32
2023-08-17T11:41:45.538Z,29.25
2023-08-17T11:42:45.529Z,29.30
2023-08-17T11:43:45.546Z,29.55
2023-08-17T11:44:45.480Z,29.32
2023-08-17T11:45:45.474Z,28.83
2023-08-17T11:46:45.499Z,28.57
2023-08-17T11:47:45.566Z,27.98
2023-08-17T11:48:45.431Z,27.08
2023-08-17T11:49:45.506Z,27.11
2023-08-17T11:50:45.440Z,27.40
2023-08-17T11:51:45.465Z,27.72
2023-08-17T11:52:46.720Z,28.06
2023-08-17T11:53:49.380Z,28.60
2023-08-17T11:54:45.397Z,28.46
2023-08-17T11:55:45.390Z,27.99
2023-08-17T11:56:45.362Z,27.27
2023-08-17T11:57:45.385Z,27.42
2023-08-17T11:58:45.660Z,26.88
2023-08-17T11:59:45.385Z,26.93
2023-08-17T12:00:45.421Z,26.88
2023-08-17T12:01:45.339Z,26.54
2023-08-17T12:02:46.381Z,26.42
2023-08-17T12:03:45.527Z,26.44
2023-08-17T12:04:45.359Z,26.41
2023-08-17T12:05:45.377Z,26.09
2023-08-17T12:06:45.308Z,26.16
2023-08-17T12:07:45.331Z,25.78
2023-08-17T12:08:46.620Z,25.63
2023-08-17T12:09:45.252Z,25.86
2023-08-17T12:10:45.304Z,25.91
2023-08-17T12:11:45.333Z,26.04
2023-08-17T12:12:45.298Z,26.16
2023-08-17T12:13:45.307Z,26.00
2023-08-17T12:14:45.422Z,25.85
2023-08-17T12:15:45.239Z,25.35
2023-08-17T12:16:45.267Z,25.05
2023-08-17T12:17:45.352Z,24.75
2023-08-17T12:18:45.190Z,24.87
2023-08-17T12:19:45.257Z,24.99
2023-08-17T12:20:46.770Z,25.29
2023-08-17T12:21:45.243Z,25.72
2023-08-17T12:22:45.203Z,25.98
2023-08-17T12:23:45.291Z,26.04
2023-08-17T12:24:45.185Z,27.03
2023-08-17T12:25:45.170Z,27.15
2023-08-17T12:26:45.206Z,26.41
2023-08-17T12:27:45.158Z,26.31
2023-08-17T12:28:45.141Z,26.21
2023-08-17T12:29:45.180Z,26.42
2023-08-17T12:30:45.192Z,26.28
2023-08-17T12:31:45.158Z,26.34
2023-08-17T12:32:45.176Z,26.28
2023-08-17T12:33:45.149Z,26.44
2023-08-17T12:34:45.165Z,26.54
2023-08-17T12:35:45.158Z,26.54
2023-08-17T12:36:45.132Z,26.66
2023-08-17T12:37:45.131Z,26.91
2023-08-17T12:38:45.116Z,27.80
2023-08-17T12:39:45.110Z,28.57
2023-08-17T12:40:45.109Z,28.61
2023-08-17T12:41:45.121Z,29.05
2023-08-17T12:42:45.077Z,29.41
2023-08-17T12:43:45.039Z,29.94
2023-08-17T12:44:45.069Z,30.34
2023-08-17T12:45:45.060Z,30.46
2023-08-17T12:46:45.073Z,30.25
2023-08-17T12:47:45.202Z,30.61
2023-08-17T12:48:44.985Z,30.64
2023-08-17T12:49:44.993Z,30.94
2023-08-17T12:50:44.999Z,30.86
2023-08-17T12:51:46.596Z,30.01
2023-08-17T12:52:47.232Z,29.29
2023-08-17T12:53:50.267Z,28.67
2023-08-17T12:54:45.982Z,28.32
2023-08-17T12:55:44.970Z,28.62